Suramericanas B722 at Bogota on Apr 10th 2017, rejected takeoff results in runway overrun

Last Update: April 11, 2017 / 13:14:01 GMT/Zulu time

Bookmark this article
Incident Facts

Date of incident
Apr 10, 2017

Classification
Incident

Destination
Pasto, Colombia

Aircraft Registration
HK-1271

Aircraft Type
Boeing 727-200

ICAO Type Designator
B722

Airport ICAO Code
SKBO

A Lineas Aereas Suramericanas Boeing 727-200 freighter, registration HK-1271 performing a charter freight flight from Bogota to Pasto (Colombia) with 4 crew and a cargo of food, was accelerating for takeoff from Bogota's runway 13R at about 12:50L (17:50Z) when the crew needed to reject takeoff at high speed but were unable to stop the aircraft before the end of the runway. The aircraft went off the paved surface and came to a stop about 170 meters/570 feet past the end of the runway. There were no injuries, the aircraft sustained minor if any damage.

Colombia's Aerocivil (Civil Aviation Authority) reported the runway was closed until 15:00L, then was re-opened with 3100 of 3600 meters length available. Aerocivil have opened an investigation into the occurrence.

Metars:
SKBO 102100Z 25007KT 5000 HZ BKN020 SCT080 16/11 A3022=
SKBO 102034Z 26009KT 5000 VCSH BKN020 16/11 A3021 RMK VCSH/N HZ=
SKBO 102000Z 24009KT 5000 -TSRA BKN017 FEW020CB 16/12 A3023 RMK CB/N HZ=
SKBO 101900Z 25013KT 5000 TS BKN017 FEW020CB 17/12 A3024 RMK CB/N HZ=
SKBO 101840Z 24013KT 5000 TS BKN020CB 18/13 A3025 RMK CB/N HZ=
SKBO 101800Z 24013KT 5000 HZ BKN020TCU 18/13 A3027 RMK TCU/N/S=
SKBO 101700Z 26004KT 9999 SCT020 SCT025TCU 20/11 A3030 RMK TCU/S/NW=
SKBO 101615Z 33006KT 1500 TSRA SCT01CB OVC070 23/23 A2991 RMK CB/NE/NW AD BLW MNM MET=
SKBO 101600Z 26005KT 9999 SCT020 FEW025TCU 18/09 A3032 RMK TCU/W=
SKBO 101500Z 01005KT 9999 SCT017 SCT070 17/10 A3034=
SKBO 101400Z 04006KT 8000 SCT017 15/11 A3035 RMK HZ=
Incident Facts

Date of incident
Apr 10, 2017

Classification
Incident

Destination
Pasto, Colombia

Aircraft Registration
HK-1271

Aircraft Type
Boeing 727-200

ICAO Type Designator
B722

Airport ICAO Code
SKBO

This article is published under license from Avherald.com. © of text by Avherald.com.
Article source

You can read 2 more free articles without a subscription.

Subscribe now and continue reading without any limits!

Are you a subscriber? Login
Subscribe

Read unlimited articles and receive our daily update briefing. Gain better insights into what is happening in commercial aviation safety.

Free newsletter

Want to know more and stay ahead? Get our free weekly newsletter and join 5470 existing subscribers.

By subscribing, you accept our terms and conditions and confirm that you've read our privacy policy.

Send tip

Support AeroInside by sending a small tip amount.

Related articles

Newest articles

Subscribe today

Are you researching aviation incidents? Get access to AeroInside Insights, unlimited read access and receive the daily newsletter.

Pick your plan and subscribe

Partner

Blockaviation logo

A new way to document and demonstrate airworthiness compliance and aircraft value. Find out more.

Virtual Speech logo

ELITE Simulation Solutions is a leading global provider of Flight Simulation Training Devices, IFR training software as well as flight controls and related services. Find out more.

Get updates

Never miss an article from AeroInside. Subscribe to our free weekly newsletter and join 5470 existing subscribers.

By subscribing, you accept our terms and conditions and that you've read our privacy policy.

AeroInside Blog
Popular aircraft
Airbus A320
Boeing 737-800
Boeing 737-800 MAX
Popular airlines
American Airlines
United
Delta
Air Canada
Lufthansa
British Airways